createdAt,value
2022-07-29T00:01:44.693Z,21.98
2022-07-29T00:04:14.411Z,21.96
2022-07-29T00:06:43.123Z,21.94
2022-07-29T00:09:11.608Z,21.84
2022-07-29T00:11:39.969Z,21.80
2022-07-29T00:14:08.558Z,21.75
2022-07-29T00:16:37.161Z,21.69
2022-07-29T00:19:06.038Z,21.58
2022-07-29T00:21:36.264Z,21.47
2022-07-29T00:24:04.825Z,21.40
2022-07-29T00:26:33.734Z,21.32
2022-07-29T00:31:53.383Z,21.10
2022-07-29T00:34:40.257Z,21.00
2022-07-29T00:37:08.546Z,20.94
2022-07-29T00:39:36.754Z,20.91
2022-07-29T00:42:06.266Z,20.90
2022-07-29T00:44:39.552Z,20.85
2022-07-29T00:47:09.451Z,20.76
2022-07-29T00:49:40.823Z,20.69
2022-07-29T00:52:11.765Z,20.68
2022-07-29T00:54:44.042Z,20.70
2022-07-29T00:57:14.650Z,20.68
2022-07-29T00:59:42.907Z,20.66
2022-07-29T01:02:11.376Z,20.65
2022-07-29T01:04:41.133Z,20.62
2022-07-29T01:07:09.516Z,20.61
2022-07-29T01:09:45.473Z,20.59
2022-07-29T01:12:20.334Z,20.60
2022-07-29T01:14:50.610Z,20.60
2022-07-29T01:18:08.159Z,20.49
2022-07-29T01:20:54.730Z,20.42
2022-07-29T01:23:59.469Z,20.45
2022-07-29T01:26:49.253Z,20.38
2022-07-29T01:29:24.216Z,20.31
2022-07-29T01:32:27.795Z,20.25
2022-07-29T01:35:15.438Z,20.24
2022-07-29T01:37:57.002Z,20.24
2022-07-29T01:40:54.905Z,20.26
2022-07-29T01:43:43.437Z,20.28
2022-07-29T01:46:21.286Z,20.32
2022-07-29T01:48:56.230Z,20.36
2022-07-29T01:51:37.078Z,20.37
2022-07-29T01:54:18.187Z,20.38
2022-07-29T01:57:00.569Z,20.42
2022-07-29T01:59:31.064Z,20.47
2022-07-29T02:02:01.503Z,20.52
2022-07-29T02:04:32.784Z,20.56
2022-07-29T02:07:07.085Z,20.57
2022-07-29T02:09:39.012Z,20.59
2022-07-29T02:12:08.568Z,20.64
2022-07-29T02:14:44.069Z,20.67
2022-07-29T02:17:14.487Z,20.73
2022-07-29T02:19:46.003Z,20.78
2022-07-29T02:22:15.608Z,20.78
2022-07-29T02:24:45.468Z,20.75
2022-07-29T02:27:15.352Z,20.74
2022-07-29T02:29:45.717Z,20.72
2022-07-29T02:32:17.195Z,20.69
2022-07-29T02:34:47.640Z,20.69
2022-07-29T02:37:18.289Z,20.69
2022-07-29T02:39:49.924Z,20.68
2022-07-29T02:42:19.816Z,20.66
2022-07-29T02:44:48.176Z,20.65
2022-07-29T02:47:47.103Z,20.61
2022-07-29T02:50:19.124Z,20.54
2022-07-29T02:53:09.729Z,20.44
2022-07-29T02:56:05.683Z,20.37
2022-07-29T02:58:40.320Z,20.34
2022-07-29T03:01:24.617Z,20.30
2022-07-29T03:03:55.119Z,20.24
2022-07-29T03:06:37.975Z,20.20
2022-07-29T03:09:13.669Z,20.19
2022-07-29T03:11:49.418Z,20.17
2022-07-29T03:14:21.187Z,20.14
2022-07-29T03:16:51.639Z,20.12
2022-07-29T03:19:21.563Z,20.14
2022-07-29T03:21:50.102Z,20.17
2022-07-29T03:24:31.198Z,20.20
2022-07-29T03:27:00.014Z,20.25
2022-07-29T03:29:33.503Z,20.29
2022-07-29T03:32:08.111Z,20.31
2022-07-29T03:34:39.051Z,20.34
2022-07-29T03:37:07.726Z,20.36
2022-07-29T03:39:42.553Z,20.42
2022-07-29T03:42:16.776Z,20.50
2022-07-29T03:44:48.836Z,20.54
2022-07-29T03:47:23.473Z,20.58
2022-07-29T03:50:15.974Z,20.61
2022-07-29T03:52:45.453Z,20.57
2022-07-29T03:55:15.748Z,20.59
2022-07-29T03:57:45.935Z,20.59
2022-07-29T04:00:16.720Z,20.57
2022-07-29T04:02:49.627Z,20.59
2022-07-29T04:05:19.360Z,20.61
2022-07-29T04:07:49.849Z,20.59
2022-07-29T04:10:26.330Z,20.59
2022-07-29T04:13:01.073Z,20.62
2022-07-29T04:15:31.034Z,20.65
2022-07-29T04:18:00.649Z,20.73
2022-07-29T04:20:29.235Z,20.76
2022-07-29T04:22:57.579Z,20.78
2022-07-29T04:25:25.864Z,20.81
2022-07-29T04:28:03.018Z,20.83
2022-07-29T04:30:33.101Z,20.89
2022-07-29T04:33:03.826Z,21.00
2022-07-29T04:35:38.207Z,21.08
2022-07-29T04:38:15.816Z,21.15
2022-07-29T04:40:45.687Z,21.15
2022-07-29T04:43:17.091Z,21.16
2022-07-29T04:45:51.573Z,21.23
2022-07-29T04:48:21.961Z,21.29
2022-07-29T04:50:52.343Z,21.34
2022-07-29T04:53:20.866Z,21.43
2022-07-29T04:55:49.240Z,21.51
2022-07-29T04:58:17.551Z,21.56
2022-07-29T05:00:45.817Z,21.59
2022-07-29T05:03:14.327Z,21.58
2022-07-29T05:05:43.447Z,21.64
2022-07-29T05:08:11.723Z,21.71
2022-07-29T05:10:39.942Z,21.80
2022-07-29T05:13:09.120Z,21.85
2022-07-29T05:15:38.087Z,21.83
2022-07-29T05:18:06.543Z,21.89
2022-07-29T05:20:35.747Z,21.98
2022-07-29T05:23:04.853Z,22.06
2022-07-29T05:25:44.366Z,22.11
2022-07-29T05:28:13.965Z,22.17
2022-07-29T05:30:42.779Z,22.22
2022-07-29T05:33:34.693Z,22.29
2022-07-29T05:36:01.171Z,22.31
2022-07-29T05:38:30.377Z,22.39
2022-07-29T05:41:01.296Z,22.51
2022-07-29T05:43:30.017Z,22.65
2022-07-29T05:45:58.757Z,22.74
2022-07-29T05:48:27.191Z,22.81
2022-07-29T05:50:55.898Z,22.89
2022-07-29T05:53:24.544Z,22.88
2022-07-29T05:55:53.338Z,22.85
2022-07-29T05:58:21.768Z,22.80
2022-07-29T06:00:50.434Z,22.78
2022-07-29T06:03:18.709Z,22.77
2022-07-29T06:05:46.897Z,22.85
2022-07-29T06:08:15.148Z,22.78
2022-07-29T06:10:43.616Z,22.70
2022-07-29T06:13:11.791Z,22.81
2022-07-29T06:15:40.396Z,22.87
2022-07-29T06:18:11.060Z,22.93
2022-07-29T06:20:39.580Z,23.03
2022-07-29T06:23:07.886Z,23.14
2022-07-29T06:25:37.808Z,23.24
2022-07-29T06:28:06.127Z,23.33
2022-07-29T06:30:34.709Z,23.37
2022-07-29T06:33:04.348Z,23.44
2022-07-29T06:35:42.120Z,23.48
2022-07-29T06:38:31.260Z,23.56
2022-07-29T06:41:04.125Z,23.65
2022-07-29T06:43:36.023Z,23.67
2022-07-29T06:46:21.439Z,23.73
2022-07-29T06:48:52.981Z,23.78
2022-07-29T06:51:23.921Z,23.81
2022-07-29T06:53:59.979Z,23.91
2022-07-29T06:56:39.555Z,23.96
2022-07-29T06:59:10.894Z,24.08
2022-07-29T07:01:41.566Z,24.18
2022-07-29T07:04:10.917Z,24.20
2022-07-29T07:06:39.432Z,24.16
2022-07-29T07:09:08.192Z,24.16
2022-07-29T07:11:36.675Z,24.26
2022-07-29T07:14:05.051Z,24.45
2022-07-29T07:16:33.572Z,24.57
2022-07-29T07:19:02.637Z,24.60
2022-07-29T07:21:31.427Z,24.64
2022-07-29T07:24:01.058Z,24.79
2022-07-29T07:26:30.125Z,24.89
2022-07-29T07:28:59.024Z,24.92
2022-07-29T07:31:27.460Z,25.00
2022-07-29T07:33:56.394Z,25.12
2022-07-29T07:36:25.078Z,25.24
2022-07-29T07:38:53.459Z,25.36
2022-07-29T07:41:23.458Z,25.46
2022-07-29T07:43:51.954Z,25.62
2022-07-29T07:46:20.829Z,25.74
2022-07-29T07:48:49.338Z,25.81
2022-07-29T07:51:17.914Z,25.90
2022-07-29T07:53:46.148Z,26.02
2022-07-29T07:56:14.487Z,26.08
2022-07-29T07:58:42.869Z,26.09
2022-07-29T08:01:11.603Z,26.16
2022-07-29T08:03:40.078Z,26.16
2022-07-29T08:06:08.501Z,26.12
2022-07-29T08:08:36.879Z,26.18
2022-07-29T08:11:09.522Z,26.30
2022-07-29T08:13:39.506Z,26.44
2022-07-29T08:16:16.592Z,26.47
2022-07-29T08:18:47.034Z,26.50
2022-07-29T08:21:16.738Z,26.51
2022-07-29T08:24:15.591Z,26.45
2022-07-29T08:26:45.081Z,26.47
2022-07-29T08:29:18.354Z,26.49
2022-07-29T08:31:48.762Z,26.46
2022-07-29T08:34:17.198Z,26.47
2022-07-29T08:36:45.427Z,26.51
2022-07-29T08:39:19.156Z,26.50
2022-07-29T08:41:57.374Z,26.49
2022-07-29T08:44:31.131Z,26.56
2022-07-29T08:46:59.586Z,26.69
2022-07-29T08:49:28.174Z,26.74
2022-07-29T08:51:58.900Z,26.79
2022-07-29T08:54:29.119Z,26.88
2022-07-29T08:56:58.455Z,27.06
2022-07-29T08:59:31.611Z,27.13
2022-07-29T09:02:01.503Z,27.19
2022-07-29T09:04:36.977Z,27.24
2022-07-29T09:07:07.146Z,27.32
2022-07-29T09:09:35.889Z,27.38
2022-07-29T09:12:05.287Z,27.47
2022-07-29T09:14:33.594Z,27.53
2022-07-29T09:17:02.131Z,27.48
2022-07-29T09:19:35.840Z,27.64
2022-07-29T09:22:10.404Z,27.77
2022-07-29T09:24:48.431Z,27.83
2022-07-29T09:27:27.770Z,27.75
2022-07-29T09:30:11.796Z,27.75
2022-07-29T09:33:02.333Z,27.71
2022-07-29T09:35:32.412Z,27.77
2022-07-29T09:38:15.002Z,27.85
2022-07-29T09:40:56.896Z,27.96
2022-07-29T09:43:28.758Z,28.10
2022-07-29T09:45:57.464Z,28.17
2022-07-29T09:48:26.436Z,28.13
2022-07-29T09:50:56.174Z,28.22
2022-07-29T09:53:38.996Z,28.27
2022-07-29T09:56:07.265Z,28.30
2022-07-29T09:58:35.929Z,28.35
2022-07-29T10:01:05.183Z,28.36
2022-07-29T10:03:33.663Z,28.40
2022-07-29T10:06:10.592Z,28.41
2022-07-29T10:08:39.006Z,28.42
2022-07-29T10:11:19.277Z,28.48
2022-07-29T10:13:50.054Z,28.56
2022-07-29T10:16:19.045Z,28.57
2022-07-29T10:18:48.106Z,28.62
2022-07-29T10:21:34.909Z,28.68
2022-07-29T10:24:07.662Z,28.67
2022-07-29T10:26:45.787Z,28.73
2022-07-29T10:29:14.135Z,28.72
2022-07-29T10:31:57.662Z,28.67
2022-07-29T10:34:49.912Z,28.66
2022-07-29T10:37:50.239Z,28.64
2022-07-29T10:40:57.381Z,28.68
2022-07-29T10:43:48.290Z,28.70
2022-07-29T10:46:20.801Z,28.66
2022-07-29T10:49:27.951Z,28.64
2022-07-29T10:52:09.621Z,28.67
2022-07-29T10:54:43.700Z,28.67
2022-07-29T10:57:25.581Z,28.70
2022-07-29T11:00:07.190Z,28.73
2022-07-29T11:02:41.728Z,28.76
2022-07-29T11:05:18.944Z,28.79
2022-07-29T11:08:20.279Z,28.84
2022-07-29T11:10:51.096Z,28.83
2022-07-29T11:13:52.229Z,28.82
2022-07-29T11:16:26.785Z,28.80
2022-07-29T11:19:13.509Z,28.81
2022-07-29T11:22:05.411Z,28.87
2022-07-29T11:24:35.240Z,28.94
2022-07-29T11:27:23.702Z,28.99
2022-07-29T11:30:03.388Z,28.98
2022-07-29T11:32:44.841Z,29.01
2022-07-29T11:35:36.742Z,29.05
2022-07-29T11:38:27.662Z,29.05
2022-07-29T11:41:18.976Z,29.02
2022-07-29T11:44:02.490Z,28.95
2022-07-29T11:46:54.103Z,28.90
2022-07-29T11:49:31.507Z,28.83
2022-07-29T11:52:04.981Z,28.71
2022-07-29T11:54:38.793Z,28.65
2022-07-29T11:57:36.582Z,28.63
2022-07-29T12:00:14.634Z,28.62
2022-07-29T12:05:48.168Z,28.58
2022-07-29T12:07:02.499Z,28.61
2022-07-29T12:08:23.177Z,28.55
2022-07-29T12:10:51.986Z,28.54
2022-07-29T12:13:22.235Z,28.51
2022-07-29T12:15:57.888Z,28.47
2022-07-29T12:18:28.642Z,28.45
2022-07-29T12:21:05.257Z,28.45
2022-07-29T12:23:35.010Z,28.45
2022-07-29T12:26:11.014Z,28.44
2022-07-29T12:28:54.735Z,28.39
2022-07-29T12:31:42.956Z,28.29
2022-07-29T12:34:16.367Z,28.15
2022-07-29T12:36:45.054Z,28.03
2022-07-29T12:39:13.660Z,27.95
2022-07-29T12:41:41.881Z,27.90
2022-07-29T12:44:10.832Z,27.85
2022-07-29T12:46:39.554Z,27.75
2022-07-29T12:49:08.086Z,27.57
2022-07-29T12:51:39.973Z,27.42
2022-07-29T12:54:14.546Z,27.40
2022-07-29T12:56:45.567Z,27.33
2022-07-29T12:59:22.635Z,27.23
2022-07-29T13:01:53.640Z,27.18
2022-07-29T13:04:30.376Z,27.09
2022-07-29T13:07:09.139Z,27.04
2022-07-29T13:09:44.554Z,27.01
2022-07-29T13:12:15.276Z,26.93
2022-07-29T13:14:45.613Z,26.83
2022-07-29T13:17:21.822Z,26.73
2022-07-29T13:20:07.222Z,26.67
2022-07-29T13:22:37.237Z,26.63
2022-07-29T13:25:07.679Z,26.60
2022-07-29T13:27:39.163Z,26.55
2022-07-29T13:30:10.123Z,26.55
2022-07-29T13:32:38.808Z,26.52
2022-07-29T13:35:09.489Z,26.47
2022-07-29T13:37:39.687Z,26.43
2022-07-29T13:40:10.759Z,26.40
2022-07-29T13:42:39.752Z,26.36
2022-07-29T13:45:10.096Z,26.29
2022-07-29T13:47:38.967Z,26.19
2022-07-29T13:50:10.936Z,26.13
2022-07-29T13:52:39.492Z,26.16
2022-07-29T13:55:09.357Z,26.16
2022-07-29T13:57:37.654Z,26.04
2022-07-29T14:00:07.542Z,25.92
2022-07-29T14:02:36.563Z,25.86
2022-07-29T14:05:08.706Z,25.85
2022-07-29T14:07:42.259Z,25.85
2022-07-29T14:10:11.041Z,25.81
2022-07-29T14:12:39.708Z,25.72
2022-07-29T14:15:09.180Z,25.65
2022-07-29T14:17:37.798Z,25.55
2022-07-29T14:20:07.311Z,25.40
2022-07-29T14:22:40.152Z,25.22
2022-07-29T14:25:14.582Z,25.16
2022-07-29T14:27:46.781Z,25.10
2022-07-29T14:30:15.594Z,24.92
2022-07-29T14:32:44.050Z,24.81
2022-07-29T14:35:12.534Z,24.67
2022-07-29T14:37:41.218Z,24.62
2022-07-29T14:40:11.823Z,24.56
2022-07-29T14:42:40.865Z,24.57
2022-07-29T14:45:10.963Z,24.60
2022-07-29T14:47:40.560Z,24.56
2022-07-29T14:50:10.084Z,24.53
2022-07-29T14:52:38.563Z,24.44
2022-07-29T14:55:19.797Z,24.37
2022-07-29T14:57:49.513Z,24.34
2022-07-29T15:00:19.164Z,24.35
2022-07-29T15:03:03.528Z,24.30
2022-07-29T15:05:32.734Z,24.26
2022-07-29T15:08:01.209Z,24.15
2022-07-29T15:10:30.029Z,24.06
2022-07-29T15:12:58.583Z,24.00
2022-07-29T15:15:27.287Z,24.01
2022-07-29T15:17:55.945Z,23.97
2022-07-29T15:20:26.986Z,23.99
2022-07-29T15:22:56.734Z,24.02
2022-07-29T15:25:28.254Z,24.00
2022-07-29T15:28:01.323Z,23.98
2022-07-29T15:30:33.444Z,23.94
2022-07-29T15:33:04.248Z,23.91
2022-07-29T15:35:33.445Z,23.91
2022-07-29T15:38:09.513Z,23.95
2022-07-29T15:40:42.385Z,24.05
2022-07-29T15:43:10.974Z,24.13
2022-07-29T15:45:41.520Z,24.18
2022-07-29T15:48:14.641Z,24.20
2022-07-29T15:50:47.107Z,24.27
2022-07-29T15:53:15.757Z,24.34
2022-07-29T15:55:44.505Z,24.39
2022-07-29T15:58:13.129Z,24.32
2022-07-29T16:00:41.589Z,24.40
2022-07-29T16:03:10.092Z,24.40
2022-07-29T16:05:39.297Z,24.46
2022-07-29T16:08:07.775Z,24.54
2022-07-29T16:10:36.459Z,24.61
2022-07-29T16:13:04.943Z,24.65
2022-07-29T16:15:34.043Z,24.59
2022-07-29T16:18:02.419Z,24.48
2022-07-29T16:20:31.619Z,24.53
2022-07-29T16:22:59.997Z,24.56
2022-07-29T16:25:50.217Z,24.60
2022-07-29T16:28:17.549Z,24.67
2022-07-29T16:30:45.923Z,24.72
2022-07-29T16:33:14.200Z,24.75
2022-07-29T16:35:43.406Z,24.75
2022-07-29T16:38:12.305Z,24.78
2022-07-29T16:40:40.778Z,24.79
2022-07-29T16:43:09.386Z,24.82
2022-07-29T16:45:45.984Z,24.85
2022-07-29T16:48:17.972Z,24.90
2022-07-29T16:50:46.685Z,24.95
2022-07-29T16:53:15.070Z,24.95
2022-07-29T16:55:43.558Z,24.96
2022-07-29T16:58:12.303Z,24.98
2022-07-29T17:00:40.782Z,25.00
2022-07-29T17:03:09.411Z,25.02
2022-07-29T17:05:50.712Z,25.01
2022-07-29T17:08:23.468Z,24.98
2022-07-29T17:10:51.956Z,24.96
2022-07-29T17:13:20.636Z,24.88
2022-07-29T17:15:49.070Z,24.83
2022-07-29T17:18:17.601Z,24.82
2022-07-29T17:20:45.821Z,24.80
2022-07-29T17:23:14.059Z,24.79
2022-07-29T17:25:42.291Z,24.80
2022-07-29T17:28:10.561Z,24.80
2022-07-29T17:30:38.799Z,24.78
2022-07-29T17:33:07.018Z,24.77
2022-07-29T17:35:53.665Z,24.75
2022-07-29T17:38:21.941Z,24.70
2022-07-29T17:40:50.243Z,24.65
2022-07-29T17:43:18.514Z,24.62
2022-07-29T17:45:49.830Z,24.59
2022-07-29T17:48:20.127Z,24.57
2022-07-29T17:50:49.273Z,24.55
2022-07-29T17:53:18.260Z,24.53
2022-07-29T17:55:48.840Z,24.52
2022-07-29T17:58:17.131Z,24.48
2022-07-29T18:00:45.538Z,24.43
2022-07-29T18:03:15.061Z,24.41
2022-07-29T18:05:43.457Z,24.39
2022-07-29T18:08:12.927Z,24.34
2022-07-29T18:10:41.602Z,24.28
2022-07-29T18:13:12.756Z,24.25
2022-07-29T18:15:41.615Z,24.19
2022-07-29T18:18:10.050Z,24.12
2022-07-29T18:20:38.634Z,24.06
2022-07-29T18:23:07.726Z,24.01
2022-07-29T18:25:36.307Z,23.96
2022-07-29T18:28:05.538Z,23.89
2022-07-29T18:30:34.708Z,23.79
2022-07-29T18:33:20.735Z,23.71
2022-07-29T18:35:51.653Z,23.63
2022-07-29T18:38:21.951Z,23.61
2022-07-29T18:40:50.258Z,23.60
2022-07-29T18:43:18.494Z,23.59
2022-07-29T18:45:48.125Z,23.54
2022-07-29T18:48:16.502Z,23.48
2022-07-29T18:50:45.401Z,23.42
2022-07-29T18:53:13.707Z,23.37
2022-07-29T18:55:42.088Z,23.36
2022-07-29T18:58:10.315Z,23.33
2022-07-29T19:00:39.099Z,23.32
2022-07-29T19:03:07.403Z,23.35
2022-07-29T19:05:35.812Z,23.34
2022-07-29T19:08:04.230Z,23.32
2022-07-29T19:10:32.476Z,23.32
2022-07-29T19:13:00.814Z,23.28
2022-07-29T19:15:29.279Z,23.22
2022-07-29T19:18:00.964Z,23.16
2022-07-29T19:20:29.768Z,23.14
2022-07-29T19:22:58.716Z,23.15
2022-07-29T19:25:26.989Z,23.19
2022-07-29T19:27:55.247Z,23.20
2022-07-29T19:30:23.524Z,23.23
2022-07-29T19:32:51.793Z,23.25
2022-07-29T19:35:31.678Z,23.29
2022-07-29T19:38:02.436Z,23.31
2022-07-29T19:40:30.709Z,23.35
2022-07-29T19:42:59.495Z,23.37
2022-07-29T19:45:28.947Z,23.37
2022-07-29T19:48:01.251Z,23.36
2022-07-29T19:50:30.675Z,23.35
2022-07-29T19:52:59.996Z,23.32
2022-07-29T19:55:28.641Z,23.32
2022-07-29T19:57:59.084Z,23.32
2022-07-29T20:00:28.734Z,23.32
2022-07-29T20:02:58.533Z,23.29
2022-07-29T20:05:28.472Z,23.27
2022-07-29T20:07:57.330Z,23.23
2022-07-29T20:10:25.891Z,23.21
2022-07-29T20:12:55.225Z,23.17
2022-07-29T20:15:23.765Z,23.15
2022-07-29T20:17:56.901Z,23.16
2022-07-29T20:20:26.371Z,23.14
2022-07-29T20:22:54.766Z,23.07
2022-07-29T20:25:24.308Z,23.00
2022-07-29T20:27:52.958Z,22.94
2022-07-29T20:30:22.867Z,22.89
2022-07-29T20:32:51.158Z,22.83
2022-07-29T20:35:19.970Z,22.77
2022-07-29T20:37:56.004Z,22.70
2022-07-29T20:40:29.361Z,22.63
2022-07-29T20:42:57.609Z,22.59
2022-07-29T20:45:25.984Z,22.56
2022-07-29T20:47:54.222Z,22.53
2022-07-29T20:50:25.200Z,22.52
2022-07-29T20:52:53.446Z,22.46
2022-07-29T20:55:21.803Z,22.43
2022-07-29T20:57:50.103Z,22.38
2022-07-29T21:00:18.545Z,22.32
2022-07-29T21:02:47.402Z,22.27
2022-07-29T21:05:16.370Z,22.22
2022-07-29T21:07:44.704Z,22.19
2022-07-29T21:10:14.437Z,22.17
2022-07-29T21:12:42.779Z,22.13
2022-07-29T21:15:13.653Z,22.07
2022-07-29T21:17:48.879Z,22.04
2022-07-29T21:20:20.667Z,22.04
2022-07-29T21:22:49.252Z,22.02
2022-07-29T21:25:17.471Z,21.97
2022-07-29T21:28:04.078Z,21.92
2022-07-29T21:30:32.931Z,21.91
2022-07-29T21:33:03.350Z,21.90
2022-07-29T21:36:06.601Z,21.89
2022-07-29T21:38:20.525Z,21.87
2022-07-29T21:40:51.779Z,21.86
2022-07-29T21:43:20.655Z,21.87
2022-07-29T21:45:52.193Z,21.88
2022-07-29T21:48:21.707Z,21.89
2022-07-29T21:50:51.319Z,21.88
2022-07-29T21:53:22.842Z,21.87
2022-07-29T21:55:52.033Z,21.83
2022-07-29T21:58:23.006Z,21.78
2022-07-29T22:00:51.611Z,21.75
2022-07-29T22:03:20.249Z,21.72
2022-07-29T22:05:48.511Z,21.72
2022-07-29T22:08:16.814Z,21.69
2022-07-29T22:10:45.568Z,21.65
2022-07-29T22:13:13.814Z,21.63
2022-07-29T22:15:46.830Z,21.65
2022-07-29T22:18:20.819Z,21.64
2022-07-29T22:20:50.641Z,21.60
2022-07-29T22:23:19.089Z,21.59
2022-07-29T22:25:47.419Z,21.59
2022-07-29T22:28:15.723Z,21.61
2022-07-29T22:30:43.996Z,21.62
2022-07-29T22:33:17.922Z,21.63
2022-07-29T22:35:48.697Z,21.61
2022-07-29T22:38:18.654Z,21.58
2022-07-29T22:40:48.687Z,21.57
2022-07-29T22:43:18.907Z,21.57
2022-07-29T22:45:47.306Z,21.56
2022-07-29T22:48:15.706Z,21.57
2022-07-29T22:50:44.054Z,21.60
2022-07-29T22:53:12.334Z,21.64
2022-07-29T22:55:40.726Z,21.68
2022-07-29T22:58:08.984Z,21.72
2022-07-29T23:00:37.359Z,21.79
2022-07-29T23:03:05.631Z,21.83
2022-07-29T23:05:33.916Z,21.85
2022-07-29T23:08:02.175Z,21.88
2022-07-29T23:10:30.466Z,21.90
2022-07-29T23:12:58.822Z,21.91
2022-07-29T23:15:27.056Z,21.91
2022-07-29T23:17:55.429Z,21.89
2022-07-29T23:20:23.756Z,21.85
2022-07-29T23:22:52.102Z,21.87
2022-07-29T23:25:20.965Z,21.86
2022-07-29T23:27:49.230Z,21.86
2022-07-29T23:30:17.549Z,21.85
2022-07-29T23:32:45.968Z,21.86
2022-07-29T23:35:14.195Z,21.87
2022-07-29T23:37:42.426Z,21.84
2022-07-29T23:40:14.460Z,21.80
2022-07-29T23:42:43.748Z,21.79
2022-07-29T23:45:13.790Z,21.76
2022-07-29T23:47:42.744Z,21.75
2022-07-29T23:50:12.702Z,21.72
2022-07-29T23:52:41.505Z,21.69
2022-07-29T23:55:36.958Z,21.68
2022-07-29T23:58:03.110Z,21.66
